Time,TemperatureF,DewpointF,PressureIn,WindDirection,WindDirectionDegrees,WindSpeedMPH,WindSpeedGustMPH,Humidity,HourlyPrecipIn,Conditions,Clouds,dailyrainin,SoftwareType,DateUTC
2013-08-22 00:04:00,73.0,67.0,-100.00,NNE,20,3.0,7.0,80,0.00,,,-99.99,,2013-08-22 04:04:00,
2013-08-22 00:23:00,72.0,67.0,-100.00,NNE,20,2.0,4.0,83,0.00,,,-99.99,,2013-08-22 04:23:00,
2013-08-22 00:54:00,72.0,67.0,-100.00,NNE,20,3.0,7.0,84,0.00,,,-99.99,,2013-08-22 04:54:00,
2013-08-22 01:22:00,73.0,68.0,-100.00,NNE,15,4.0,8.0,84,0.00,,,-99.99,,2013-08-22 05:22:00,
2013-08-22 01:52:00,73.0,67.0,-100.00,NNE,15,4.0,9.0,84,0.00,,,-99.99,,2013-08-22 05:52:00,
2013-08-22 02:22:00,72.0,68.0,-100.00,North,10,2.0,6.0,86,0.00,,,-99.99,,2013-08-22 06:22:00,
2013-08-22 02:52:00,71.0,68.0,-100.00,NNE,15,4.0,6.0,89,0.00,,,-99.99,,2013-08-22 06:52:00,
2013-08-22 03:22:00,70.0,68.0,-100.00,North,0,2.0,7.0,93,0.00,,,-99.99,,2013-08-22 07:22:00,
2013-08-22 03:52:00,70.0,68.0,-100.00,North,10,3.0,7.0,94,0.00,,,-99.99,,2013-08-22 07:52:00,
2013-08-22 04:22:00,69.0,68.0,-100.00,North,5,2.0,6.0,95,0.00,,,-99.99,,2013-08-22 08:22:00,
2013-08-22 04:53:00,69.0,67.0,-100.00,North,10,2.0,6.0,95,0.00,,,-99.99,,2013-08-22 08:53:00,
2013-08-22 05:22:00,68.0,67.0,-100.00,North,5,4.0,6.0,96,0.00,,,-99.99,,2013-08-22 09:22:00,
2013-08-22 05:53:00,69.0,67.0,-100.00,North,5,2.0,5.0,94,0.00,,,-99.99,,2013-08-22 09:53:00,
2013-08-22 06:23:00,69.0,67.0,-100.00,North,5,1.0,5.0,94,0.00,,,-99.99,,2013-08-22 10:23:00,
2013-08-22 08:52:00,72.0,69.0,-100.00,North,10,4.0,9.0,88,0.00,,,-99.99,,2013-08-22 12:52:00,
2013-08-22 09:52:00,76.0,69.0,-100.00,NNE,15,4.0,8.0,78,0.00,,,-99.99,,2013-08-22 13:52:00,
2013-08-22 10:11:00,77.0,68.0,-100.00,NNE,25,5.0,10.0,75,0.00,,,-99.99,,2013-08-22 14:11:00,
2013-08-22 10:22:00,76.0,68.0,-100.00,NE,35,4.0,13.0,77,0.00,,,-99.99,,2013-08-22 14:22:00,
2013-08-22 10:52:00,75.0,68.0,-100.00,NE,55,7.0,14.0,77,0.00,,,-99.99,,2013-08-22 14:52:00,
2013-08-22 11:22:00,75.0,69.0,-100.00,NNE,25,6.0,11.0,80,0.00,,,-99.99,,2013-08-22 15:22:00,
2013-08-22 11:54:00,78.0,69.0,-100.00,NNE,25,6.0,9.0,75,0.00,,,-99.99,,2013-08-22 15:54:00,
2013-08-22 12:05:00,78.0,69.0,-100.00,NNE,25,6.0,9.0,75,0.00,,,-99.99,,2013-08-22 16:05:00,
2013-08-22 12:25:00,77.0,68.0,-100.00,NNE,25,4.0,11.0,72,0.00,,,-99.99,,2013-08-22 16:25:00,
2013-08-22 12:43:00,77.0,68.0,-100.00,NNE,25,4.0,7.0,72,0.00,,,-99.99,,2013-08-22 16:43:00,
2013-08-22 12:54:00,77.0,69.0,-100.00,NNE,25,6.0,12.0,75,0.00,,,-99.99,,2013-08-22 16:54:00,
2013-08-22 13:24:00,79.0,69.0,-100.00,NNE,30,7.0,14.0,73,0.00,,,-99.99,,2013-08-22 17:24:00,
2013-08-22 13:53:00,80.0,69.0,-100.00,NE,35,5.0,14.0,71,0.00,,,-99.99,,2013-08-22 17:53:00,
2013-08-22 14:22:00,81.0,69.0,-100.00,ENE,65,6.0,13.0,67,0.00,,,-99.99,,2013-08-22 18:22:00,
2013-08-22 14:52:00,82.0,67.0,-100.00,NE,35,4.0,9.0,61,0.00,,,-99.99,,2013-08-22 18:52:00,
2013-08-22 15:22:00,83.0,66.0,-100.00,NNE,25,7.0,12.0,57,0.00,,,-99.99,,2013-08-22 19:22:00,
2013-08-22 15:53:00,83.0,65.0,-100.00,NNE,30,6.0,11.0,56,0.00,,,-99.99,,2013-08-22 19:53:00,
2013-08-22 16:23:00,82.0,65.0,-100.00,ENE,75,9.0,12.0,57,0.00,,,-99.99,,2013-08-22 20:23:00,
2013-08-22 16:52:00,83.0,66.0,-100.00,ENE,60,6.0,9.0,57,0.00,,,-99.99,,2013-08-22 20:52:00,
2013-08-22 17:22:00,80.0,67.0,-100.00,ENE,60,8.0,14.0,63,0.00,,,-99.99,,2013-08-22 21:22:00,
2013-08-22 17:34:00,80.0,67.0,-100.00,ENE,60,8.0,14.0,63,0.00,,,-99.99,,2013-08-22 21:34:00,
2013-08-22 17:54:00,78.0,66.0,-100.00,ENE,60,5.0,10.0,67,0.00,,,-99.99,,2013-08-22 21:54:00,
2013-08-22 18:13:00,78.0,67.0,-100.00,ENE,65,4.0,9.0,70,0.00,,,-99.99,,2013-08-22 22:13:00,
2013-08-22 18:25:00,78.0,67.0,-100.00,ENE,60,3.0,6.0,70,0.00,,,-99.99,,2013-08-22 22:25:00,
2013-08-22 18:53:00,77.0,68.0,-100.00,ENE,75,6.0,7.0,74,0.00,,,-99.99,,2013-08-22 22:53:00,
2013-08-22 19:23:00,76.0,67.0,-100.00,ENE,75,2.0,5.0,73,0.00,,,-99.99,,2013-08-22 23:23:00,
2013-08-22 19:42:00,76.0,68.0,-100.00,ENE,70,4.0,5.0,73,0.00,,,-99.99,,2013-08-22 23:42:00,
2013-08-22 19:52:00,76.0,67.0,-100.00,ENE,65,3.0,6.0,75,0.00,,,-99.99,,2013-08-22 23:52:00,
2013-08-22 20:23:00,73.0,68.0,-100.00,ENE,70,3.0,4.0,83,0.00,,,-99.99,,2013-08-23 00:23:00,
2013-08-22 20:52:00,73.0,68.0,-100.00,ENE,65,2.0,6.0,84,0.00,,,-99.99,,2013-08-23 00:52:00,
2013-08-22 21:21:00,71.0,68.0,-100.00,ENE,70,4.0,6.0,89,0.00,,,-99.99,,2013-08-23 01:21:00,
2013-08-22 21:52:00,71.0,68.0,-100.00,East,80,4.0,6.0,91,0.00,,,-99.99,,2013-08-23 01:52:00,
2013-08-22 22:23:00,71.0,69.0,-100.00,ENE,65,0.0,0.0,92,0.00,,,-99.99,,2013-08-23 02:23:00,
2013-08-22 22:52:00,71.0,69.0,-100.00,ENE,60,0.0,3.0,93,0.00,,,-99.99,,2013-08-23 02:52:00,
2013-08-22 23:23:00,70.0,69.0,-100.00,NE,45,2.0,4.0,95,0.00,,,-99.99,,2013-08-23 03:23:00,
2013-08-22 23:55:00,70.0,69.0,-100.00,ESE,120,1.0,3.0,95,0.00,,,-99.99,,2013-08-23 03:55:00,